sensor_id;sensor_type;location;lat;lon;timestamp;P1;durP1;ratioP1;P2;durP2;ratioP2
15071;SDS011;7635;56.696;13.002;2023-04-03T00:21:38;1.13;;;0.97;;
15071;SDS011;7635;56.696;13.002;2023-04-03T00:24:05;0.90;;;0.90;;
15071;SDS011;7635;56.696;13.002;2023-04-03T00:26:32;1.50;;;1.10;;
15071;SDS011;7635;56.696;13.002;2023-04-03T00:28:58;1.40;;;1.20;;
15071;SDS011;7635;56.696;13.002;2023-04-03T00:31:25;0.90;;;0.90;;
15071;SDS011;7635;56.696;13.002;2023-04-03T00:33:52;2.00;;;1.20;;
15071;SDS011;7635;56.696;13.002;2023-04-03T00:36:19;1.70;;;1.40;;
15071;SDS011;7635;56.696;13.002;2023-04-03T00:38:47;1.87;;;1.53;;
15071;SDS011;7635;56.696;13.002;2023-04-03T00:41:13;1.80;;;1.50;;
15071;SDS011;7635;56.696;13.002;2023-04-03T00:43:40;3.53;;;1.77;;
15071;SDS011;7635;56.696;13.002;2023-04-03T00:46:07;3.53;;;1.70;;
15071;SDS011;7635;56.696;13.002;2023-04-03T00:48:35;3.73;;;1.60;;
15071;SDS011;7635;56.696;13.002;2023-04-03T00:51:06;3.10;;;1.70;;
15071;SDS011;7635;56.696;13.002;2023-04-03T00:53:37;6.47;;;2.10;;
15071;SDS011;7635;56.696;13.002;2023-04-03T00:56:08;4.83;;;2.23;;
15071;SDS011;7635;56.696;13.002;2023-04-03T00:58:39;9.90;;;3.37;;
15071;SDS011;7635;56.696;13.002;2023-04-03T01:01:10;7.50;;;2.67;;
15071;SDS011;7635;56.696;13.002;2023-04-03T01:03:40;2.60;;;1.33;;
15071;SDS011;7635;56.696;13.002;2023-04-03T01:06:06;2.73;;;1.73;;
15071;SDS011;7635;56.696;13.002;2023-04-03T01:08:33;2.77;;;1.77;;
15071;SDS011;7635;56.696;13.002;2023-04-03T01:11:01;3.30;;;1.90;;
15071;SDS011;7635;56.696;13.002;2023-04-03T01:13:30;2.77;;;1.60;;
15071;SDS011;7635;56.696;13.002;2023-04-03T01:16:00;2.03;;;1.67;;
15071;SDS011;7635;56.696;13.002;2023-04-03T01:18:28;3.67;;;1.80;;
15071;SDS011;7635;56.696;13.002;2023-04-03T01:21:06;2.20;;;1.70;;
15071;SDS011;7635;56.696;13.002;2023-04-03T01:24:09;1.60;;;1.50;;
15071;SDS011;7635;56.696;13.002;2023-04-03T01:26:42;3.00;;;1.47;;
15071;SDS011;7635;56.696;13.002;2023-04-03T01:29:11;5.03;;;1.80;;
15071;SDS011;7635;56.696;13.002;2023-04-03T01:31:47;4.77;;;2.03;;
15071;SDS011;7635;56.696;13.002;2023-04-03T01:34:15;3.90;;;1.70;;
15071;SDS011;7635;56.696;13.002;2023-04-03T01:36:42;2.00;;;1.20;;
15071;SDS011;7635;56.696;13.002;2023-04-03T01:39:08;3.17;;;1.50;;
15071;SDS011;7635;56.696;13.002;2023-04-03T01:41:35;2.30;;;1.90;;
15071;SDS011;7635;56.696;13.002;2023-04-03T01:44:02;2.70;;;1.53;;
15071;SDS011;7635;56.696;13.002;2023-04-03T01:46:30;1.90;;;1.40;;
15071;SDS011;7635;56.696;13.002;2023-04-03T01:48:58;1.30;;;1.20;;
15071;SDS011;7635;56.696;13.002;2023-04-03T01:51:25;3.37;;;1.37;;
15071;SDS011;7635;56.696;13.002;2023-04-03T01:53:52;1.13;;;1.10;;
15071;SDS011;7635;56.696;13.002;2023-04-03T01:56:18;1.23;;;1.07;;
15071;SDS011;7635;56.696;13.002;2023-04-03T01:58:46;0.90;;;0.90;;
15071;SDS011;7635;56.696;13.002;2023-04-03T02:01:12;1.20;;;1.10;;
15071;SDS011;7635;56.696;13.002;2023-04-03T02:03:40;1.57;;;1.20;;
15071;SDS011;7635;56.696;13.002;2023-04-03T02:06:08;1.00;;;1.00;;
15071;SDS011;7635;56.696;13.002;2023-04-03T02:08:35;1.50;;;1.20;;
15071;SDS011;7635;56.696;13.002;2023-04-03T02:11:02;2.33;;;1.03;;
15071;SDS011;7635;56.696;13.002;2023-04-03T02:13:29;2.73;;;1.40;;
15071;SDS011;7635;56.696;13.002;2023-04-03T02:15:56;1.10;;;1.10;;
15071;SDS011;7635;56.696;13.002;2023-04-03T02:18:24;1.00;;;1.00;;
15071;SDS011;7635;56.696;13.002;2023-04-03T02:20:50;1.27;;;1.17;;
15071;SDS011;7635;56.696;13.002;2023-04-03T02:23:19;1.20;;;1.10;;
15071;SDS011;7635;56.696;13.002;2023-04-03T02:25:45;1.47;;;1.37;;
15071;SDS011;7635;56.696;13.002;2023-04-03T02:28:14;1.33;;;1.23;;
15071;SDS011;7635;56.696;13.002;2023-04-03T02:30:40;1.30;;;1.20;;
15071;SDS011;7635;56.696;13.002;2023-04-03T02:33:07;1.30;;;1.20;;
15071;SDS011;7635;56.696;13.002;2023-04-03T02:35:34;1.40;;;1.30;;
15071;SDS011;7635;56.696;13.002;2023-04-03T02:38:01;1.33;;;0.93;;
15071;SDS011;7635;56.696;13.002;2023-04-03T02:40:30;1.50;;;1.20;;
15071;SDS011;7635;56.696;13.002;2023-04-03T02:42:57;1.40;;;1.20;;
15071;SDS011;7635;56.696;13.002;2023-04-03T02:45:23;1.63;;;1.40;;
15071;SDS011;7635;56.696;13.002;2023-04-03T02:47:51;3.50;;;1.47;;
15071;SDS011;7635;56.696;13.002;2023-04-03T02:50:17;1.97;;;1.40;;
15071;SDS011;7635;56.696;13.002;2023-04-03T02:52:44;3.10;;;1.33;;
15071;SDS011;7635;56.696;13.002;2023-04-03T02:55:13;2.20;;;1.40;;
15071;SDS011;7635;56.696;13.002;2023-04-03T02:57:41;1.20;;;1.10;;
15071;SDS011;7635;56.696;13.002;2023-04-03T03:00:09;2.97;;;1.20;;
15071;SDS011;7635;56.696;13.002;2023-04-03T03:02:36;1.20;;;1.10;;
15071;SDS011;7635;56.696;13.002;2023-04-03T03:05:03;1.20;;;1.10;;
15071;SDS011;7635;56.696;13.002;2023-04-03T03:07:30;1.20;;;1.13;;
15071;SDS011;7635;56.696;13.002;2023-04-03T03:09:57;1.40;;;1.30;;
15071;SDS011;7635;56.696;13.002;2023-04-03T03:12:24;1.13;;;1.10;;
15071;SDS011;7635;56.696;13.002;2023-04-03T03:14:52;2.47;;;1.03;;
15071;SDS011;7635;56.696;13.002;2023-04-03T03:17:18;1.17;;;1.00;;
15071;SDS011;7635;56.696;13.002;2023-04-03T03:19:45;1.27;;;1.17;;
15071;SDS011;7635;56.696;13.002;2023-04-03T03:22:12;1.73;;;1.10;;
15071;SDS011;7635;56.696;13.002;2023-04-03T03:24:39;0.90;;;0.90;;
15071;SDS011;7635;56.696;13.002;2023-04-03T03:27:05;0.90;;;0.90;;
15071;SDS011;7635;56.696;13.002;2023-04-03T03:29:32;1.30;;;1.20;;
15071;SDS011;7635;56.696;13.002;2023-04-03T03:32:00;1.20;;;1.10;;
15071;SDS011;7635;56.696;13.002;2023-04-03T03:34:27;0.87;;;0.87;;
15071;SDS011;7635;56.696;13.002;2023-04-03T03:36:54;1.10;;;1.00;;
15071;SDS011;7635;56.696;13.002;2023-04-03T03:39:21;1.03;;;0.93;;
15071;SDS011;7635;56.696;13.002;2023-04-03T03:41:47;2.10;;;1.10;;
15071;SDS011;7635;56.696;13.002;2023-04-03T03:44:15;0.87;;;0.87;;
15071;SDS011;7635;56.696;13.002;2023-04-03T03:46:42;0.90;;;0.90;;
15071;SDS011;7635;56.696;13.002;2023-04-03T03:49:11;0.90;;;0.90;;
15071;SDS011;7635;56.696;13.002;2023-04-03T03:51:38;1.27;;;1.17;;
15071;SDS011;7635;56.696;13.002;2023-04-03T03:54:05;1.47;;;1.13;;
15071;SDS011;7635;56.696;13.002;2023-04-03T03:56:32;1.33;;;1.20;;
15071;SDS011;7635;56.696;13.002;2023-04-03T03:58:59;2.00;;;1.20;;
15071;SDS011;7635;56.696;13.002;2023-04-03T04:01:26;4.37;;;1.17;;
15071;SDS011;7635;56.696;13.002;2023-04-03T04:03:53;0.90;;;0.90;;
15071;SDS011;7635;56.696;13.002;2023-04-03T04:06:21;1.00;;;1.00;;
15071;SDS011;7635;56.696;13.002;2023-04-03T04:08:48;1.23;;;1.13;;
15071;SDS011;7635;56.696;13.002;2023-04-03T04:11:15;1.27;;;0.90;;
15071;SDS011;7635;56.696;13.002;2023-04-03T04:13:42;0.90;;;0.90;;
15071;SDS011;7635;56.696;13.002;2023-04-03T04:16:09;1.20;;;1.10;;
15071;SDS011;7635;56.696;13.002;2023-04-03T04:18:36;2.23;;;0.97;;
15071;SDS011;7635;56.696;13.002;2023-04-03T04:21:03;0.97;;;0.90;;
15071;SDS011;7635;56.696;13.002;2023-04-03T04:23:31;1.27;;;1.03;;
15071;SDS011;7635;56.696;13.002;2023-04-03T04:25:57;0.90;;;0.90;;
15071;SDS011;7635;56.696;13.002;2023-04-03T04:28:24;0.90;;;0.90;;
15071;SDS011;7635;56.696;13.002;2023-04-03T04:30:51;1.13;;;1.07;;
15071;SDS011;7635;56.696;13.002;2023-04-03T04:33:18;1.10;;;0.90;;
15071;SDS011;7635;56.696;13.002;2023-04-03T04:35:46;1.47;;;0.90;;
15071;SDS011;7635;56.696;13.002;2023-04-03T04:38:13;1.13;;;0.90;;
15071;SDS011;7635;56.696;13.002;2023-04-03T04:40:41;0.77;;;0.77;;
15071;SDS011;7635;56.696;13.002;2023-04-03T04:43:08;1.40;;;1.30;;
15071;SDS011;7635;56.696;13.002;2023-04-03T04:45:35;2.43;;;1.00;;
15071;SDS011;7635;56.696;13.002;2023-04-03T04:48:02;1.00;;;0.90;;
15071;SDS011;7635;56.696;13.002;2023-04-03T04:50:29;0.87;;;0.87;;
15071;SDS011;7635;56.696;13.002;2023-04-03T04:52:56;1.20;;;1.00;;
15071;SDS011;7635;56.696;13.002;2023-04-03T04:55:23;0.90;;;0.90;;
15071;SDS011;7635;56.696;13.002;2023-04-03T04:57:51;0.97;;;0.97;;
15071;SDS011;7635;56.696;13.002;2023-04-03T05:00:18;1.20;;;0.90;;
15071;SDS011;7635;56.696;13.002;2023-04-03T05:02:45;1.00;;;1.00;;
15071;SDS011;7635;56.696;13.002;2023-04-03T05:05:12;3.33;;;0.90;;
15071;SDS011;7635;56.696;13.002;2023-04-03T05:07:39;1.17;;;1.00;;
15071;SDS011;7635;56.696;13.002;2023-04-03T05:10:06;1.63;;;0.97;;
15071;SDS011;7635;56.696;13.002;2023-04-03T05:12:34;1.03;;;1.00;;
15071;SDS011;7635;56.696;13.002;2023-04-03T05:15:03;0.83;;;0.80;;
15071;SDS011;7635;56.696;13.002;2023-04-03T05:17:30;1.10;;;0.80;;
15071;SDS011;7635;56.696;13.002;2023-04-03T05:19:57;0.90;;;0.90;;
15071;SDS011;7635;56.696;13.002;2023-04-03T05:22:24;0.80;;;0.80;;
15071;SDS011;7635;56.696;13.002;2023-04-03T05:24:50;0.80;;;0.80;;
15071;SDS011;7635;56.696;13.002;2023-04-03T05:27:17;2.07;;;0.90;;
15071;SDS011;7635;56.696;13.002;2023-04-03T05:29:44;0.90;;;0.90;;
15071;SDS011;7635;56.696;13.002;2023-04-03T05:32:12;2.03;;;1.10;;
15071;SDS011;7635;56.696;13.002;2023-04-03T05:34:39;1.13;;;1.10;;
15071;SDS011;7635;56.696;13.002;2023-04-03T05:37:06;1.03;;;0.97;;
15071;SDS011;7635;56.696;13.002;2023-04-03T05:39:33;1.20;;;1.10;;
15071;SDS011;7635;56.696;13.002;2023-04-03T05:41:59;0.97;;;0.97;;
15071;SDS011;7635;56.696;13.002;2023-04-03T05:44:26;0.87;;;0.87;;
15071;SDS011;7635;56.696;13.002;2023-04-03T05:46:53;1.00;;;1.00;;
15071;SDS011;7635;56.696;13.002;2023-04-03T05:49:21;1.33;;;1.03;;
15071;SDS011;7635;56.696;13.002;2023-04-03T05:51:48;1.20;;;1.10;;
15071;SDS011;7635;56.696;13.002;2023-04-03T05:54:16;1.43;;;1.10;;
15071;SDS011;7635;56.696;13.002;2023-04-03T05:56:46;2.00;;;0.83;;
15071;SDS011;7635;56.696;13.002;2023-04-03T05:59:13;0.90;;;0.90;;
15071;SDS011;7635;56.696;13.002;2023-04-03T06:01:40;0.97;;;0.80;;
15071;SDS011;7635;56.696;13.002;2023-04-03T06:04:06;1.13;;;0.97;;
15071;SDS011;7635;56.696;13.002;2023-04-03T06:06:48;2.20;;;0.90;;
15071;SDS011;7635;56.696;13.002;2023-04-03T06:09:17;1.20;;;0.97;;
15071;SDS011;7635;56.696;13.002;2023-04-03T06:11:46;1.40;;;0.90;;
15071;SDS011;7635;56.696;13.002;2023-04-03T06:14:13;1.17;;;0.90;;
15071;SDS011;7635;56.696;13.002;2023-04-03T06:16:40;1.57;;;0.83;;
15071;SDS011;7635;56.696;13.002;2023-04-03T06:19:07;1.00;;;1.00;;
15071;SDS011;7635;56.696;13.002;2023-04-03T06:21:34;1.13;;;1.07;;
15071;SDS011;7635;56.696;13.002;2023-04-03T06:24:03;1.20;;;1.10;;
15071;SDS011;7635;56.696;13.002;2023-04-03T06:26:30;1.13;;;1.03;;
15071;SDS011;7635;56.696;13.002;2023-04-03T06:28:58;1.17;;;1.10;;
15071;SDS011;7635;56.696;13.002;2023-04-03T06:31:25;1.00;;;0.90;;
15071;SDS011;7635;56.696;13.002;2023-04-03T06:33:51;2.17;;;1.10;;
15071;SDS011;7635;56.696;13.002;2023-04-03T06:36:19;1.30;;;1.20;;
15071;SDS011;7635;56.696;13.002;2023-04-03T06:38:46;1.03;;;0.90;;
15071;SDS011;7635;56.696;13.002;2023-04-03T06:41:15;1.27;;;0.80;;
15071;SDS011;7635;56.696;13.002;2023-04-03T06:43:42;1.00;;;1.00;;
15071;SDS011;7635;56.696;13.002;2023-04-03T06:46:12;2.13;;;0.80;;
15071;SDS011;7635;56.696;13.002;2023-04-03T06:48:39;1.47;;;0.70;;
15071;SDS011;7635;56.696;13.002;2023-04-03T06:51:06;0.60;;;0.57;;
15071;SDS011;7635;56.696;13.002;2023-04-03T06:53:34;1.30;;;1.20;;
15071;SDS011;7635;56.696;13.002;2023-04-03T06:56:01;1.00;;;0.90;;
15071;SDS011;7635;56.696;13.002;2023-04-03T06:58:29;1.00;;;0.90;;
15071;SDS011;7635;56.696;13.002;2023-04-03T07:00:56;3.60;;;1.13;;
15071;SDS011;7635;56.696;13.002;2023-04-03T07:03:22;1.80;;;0.97;;
15071;SDS011;7635;56.696;13.002;2023-04-03T07:05:49;1.07;;;0.80;;
15071;SDS011;7635;56.696;13.002;2023-04-03T07:08:16;0.70;;;0.70;;
15071;SDS011;7635;56.696;13.002;2023-04-03T07:10:43;1.43;;;1.10;;
15071;SDS011;7635;56.696;13.002;2023-04-03T07:13:09;0.90;;;0.87;;
15071;SDS011;7635;56.696;13.002;2023-04-03T07:15:38;1.50;;;0.70;;
15071;SDS011;7635;56.696;13.002;2023-04-03T07:18:04;1.30;;;0.97;;
15071;SDS011;7635;56.696;13.002;2023-04-03T07:20:31;0.90;;;0.90;;
15071;SDS011;7635;56.696;13.002;2023-04-03T07:22:58;0.73;;;0.73;;
15071;SDS011;7635;56.696;13.002;2023-04-03T07:25:26;2.47;;;1.10;;
15071;SDS011;7635;56.696;13.002;2023-04-03T07:27:53;1.20;;;1.20;;
15071;SDS011;7635;56.696;13.002;2023-04-03T07:30:20;0.90;;;0.90;;
15071;SDS011;7635;56.696;13.002;2023-04-03T07:32:48;0.80;;;0.80;;
15071;SDS011;7635;56.696;13.002;2023-04-03T07:35:16;1.60;;;0.90;;
15071;SDS011;7635;56.696;13.002;2023-04-03T07:37:44;0.80;;;0.57;;
15071;SDS011;7635;56.696;13.002;2023-04-03T07:40:11;0.70;;;0.70;;
15071;SDS011;7635;56.696;13.002;2023-04-03T07:42:38;0.80;;;0.80;;
15071;SDS011;7635;56.696;13.002;2023-04-03T07:45:04;0.67;;;0.57;;
15071;SDS011;7635;56.696;13.002;2023-04-03T07:47:32;0.60;;;0.60;;
15071;SDS011;7635;56.696;13.002;2023-04-03T07:50:00;0.63;;;0.63;;
15071;SDS011;7635;56.696;13.002;2023-04-03T07:52:26;0.43;;;0.43;;
15071;SDS011;7635;56.696;13.002;2023-04-03T07:54:53;0.97;;;0.60;;
15071;SDS011;7635;56.696;13.002;2023-04-03T07:57:20;0.60;;;0.60;;
15071;SDS011;7635;56.696;13.002;2023-04-03T07:59:46;0.77;;;0.77;;
15071;SDS011;7635;56.696;13.002;2023-04-03T08:02:13;0.97;;;0.90;;
15071;SDS011;7635;56.696;13.002;2023-04-03T08:04:40;1.13;;;0.90;;
15071;SDS011;7635;56.696;13.002;2023-04-03T08:07:08;0.50;;;0.50;;
15071;SDS011;7635;56.696;13.002;2023-04-03T08:09:35;0.50;;;0.50;;
15071;SDS011;7635;56.696;13.002;2023-04-03T08:12:01;0.70;;;0.70;;
15071;SDS011;7635;56.696;13.002;2023-04-03T08:14:30;0.63;;;0.63;;
15071;SDS011;7635;56.696;13.002;2023-04-03T08:16:59;0.50;;;0.50;;
15071;SDS011;7635;56.696;13.002;2023-04-03T08:19:27;0.83;;;0.73;;
15071;SDS011;7635;56.696;13.002;2023-04-03T08:21:54;1.33;;;1.00;;
15071;SDS011;7635;56.696;13.002;2023-04-03T08:24:23;0.67;;;0.67;;
15071;SDS011;7635;56.696;13.002;2023-04-03T08:26:50;0.50;;;0.50;;
15071;SDS011;7635;56.696;13.002;2023-04-03T08:29:17;0.93;;;0.93;;
15071;SDS011;7635;56.696;13.002;2023-04-03T08:31:43;0.50;;;0.50;;
15071;SDS011;7635;56.696;13.002;2023-04-03T08:34:11;1.50;;;0.73;;
15071;SDS011;7635;56.696;13.002;2023-04-03T08:36:38;0.83;;;0.83;;
15071;SDS011;7635;56.696;13.002;2023-04-03T08:39:05;0.60;;;0.60;;
15071;SDS011;7635;56.696;13.002;2023-04-03T08:41:34;1.03;;;0.80;;
15071;SDS011;7635;56.696;13.002;2023-04-03T08:44:07;0.47;;;0.47;;
15071;SDS011;7635;56.696;13.002;2023-04-03T08:46:44;0.43;;;0.43;;
15071;SDS011;7635;56.696;13.002;2023-04-03T08:49:20;0.70;;;0.70;;
15071;SDS011;7635;56.696;13.002;2023-04-03T08:51:52;1.03;;;0.90;;
15071;SDS011;7635;56.696;13.002;2023-04-03T08:54:23;0.77;;;0.50;;
15071;SDS011;7635;56.696;13.002;2023-04-03T08:56:56;1.13;;;0.90;;
15071;SDS011;7635;56.696;13.002;2023-04-03T08:59:26;0.80;;;0.80;;
15071;SDS011;7635;56.696;13.002;2023-04-03T09:01:56;1.17;;;0.80;;
15071;SDS011;7635;56.696;13.002;2023-04-03T09:04:27;0.80;;;0.80;;
15071;SDS011;7635;56.696;13.002;2023-04-03T09:06:57;0.53;;;0.53;;
15071;SDS011;7635;56.696;13.002;2023-04-03T09:09:33;0.60;;;0.60;;
15071;SDS011;7635;56.696;13.002;2023-04-03T09:12:09;0.80;;;0.60;;
15071;SDS011;7635;56.696;13.002;2023-04-03T09:14:43;0.70;;;0.70;;
15071;SDS011;7635;56.696;13.002;2023-04-03T09:17:20;0.67;;;0.67;;
15071;SDS011;7635;56.696;13.002;2023-04-03T09:20:02;0.50;;;0.50;;
15071;SDS011;7635;56.696;13.002;2023-04-03T09:22:41;0.40;;;0.40;;
15071;SDS011;7635;56.696;13.002;2023-04-03T09:25:10;1.20;;;0.90;;
15071;SDS011;7635;56.696;13.002;2023-04-03T09:27:41;1.47;;;0.90;;
15071;SDS011;7635;56.696;13.002;2023-04-03T09:30:12;1.10;;;1.03;;
15071;SDS011;7635;56.696;13.002;2023-04-03T09:32:40;0.77;;;0.77;;
15071;SDS011;7635;56.696;13.002;2023-04-03T09:35:15;0.60;;;0.60;;
15071;SDS011;7635;56.696;13.002;2023-04-03T09:37:45;0.53;;;0.53;;
15071;SDS011;7635;56.696;13.002;2023-04-03T09:40:33;1.20;;;1.03;;
15071;SDS011;7635;56.696;13.002;2023-04-03T09:45:48;0.50;;;0.50;;
15071;SDS011;7635;56.696;13.002;2023-04-03T09:48:17;0.80;;;0.67;;
15071;SDS011;7635;56.696;13.002;2023-04-03T09:50:55;1.60;;;0.50;;
15071;SDS011;7635;56.696;13.002;2023-04-03T09:53:29;0.47;;;0.47;;
15071;SDS011;7635;56.696;13.002;2023-04-03T09:56:02;0.60;;;0.60;;
15071;SDS011;7635;56.696;13.002;2023-04-03T09:58:33;1.93;;;1.00;;
15071;SDS011;7635;56.696;13.002;2023-04-03T10:01:05;0.73;;;0.70;;
15071;SDS011;7635;56.696;13.002;2023-04-03T10:03:33;1.80;;;0.87;;
15071;SDS011;7635;56.696;13.002;2023-04-03T10:06:02;0.53;;;0.53;;
15071;SDS011;7635;56.696;13.002;2023-04-03T10:08:33;0.60;;;0.60;;
15071;SDS011;7635;56.696;13.002;2023-04-03T10:11:11;0.80;;;0.80;;
15071;SDS011;7635;56.696;13.002;2023-04-03T10:13:53;0.77;;;0.77;;
15071;SDS011;7635;56.696;13.002;2023-04-03T10:16:25;0.60;;;0.60;;
15071;SDS011;7635;56.696;13.002;2023-04-03T10:19:02;0.70;;;0.70;;
15071;SDS011;7635;56.696;13.002;2023-04-03T10:21:38;0.70;;;0.70;;
15071;SDS011;7635;56.696;13.002;2023-04-03T10:24:10;0.30;;;0.30;;
15071;SDS011;7635;56.696;13.002;2023-04-03T10:26:43;0.70;;;0.70;;
15071;SDS011;7635;56.696;13.002;2023-04-03T10:29:21;0.43;;;0.43;;
15071;SDS011;7635;56.696;13.002;2023-04-03T10:31:59;0.73;;;0.73;;
15071;SDS011;7635;56.696;13.002;2023-04-03T10:34:35;0.70;;;0.70;;
15071;SDS011;7635;56.696;13.002;2023-04-03T10:37:08;0.70;;;0.60;;
15071;SDS011;7635;56.696;13.002;2023-04-03T10:39:46;0.63;;;0.63;;
15071;SDS011;7635;56.696;13.002;2023-04-03T10:42:22;0.57;;;0.57;;
15071;SDS011;7635;56.696;13.002;2023-04-03T10:44:59;0.70;;;0.70;;
15071;SDS011;7635;56.696;13.002;2023-04-03T10:47:36;0.60;;;0.60;;
15071;SDS011;7635;56.696;13.002;2023-04-03T10:50:15;0.80;;;0.80;;
15071;SDS011;7635;56.696;13.002;2023-04-03T10:52:55;0.80;;;0.80;;
15071;SDS011;7635;56.696;13.002;2023-04-03T10:55:30;0.33;;;0.33;;
15071;SDS011;7635;56.696;13.002;2023-04-03T10:58:02;0.60;;;0.60;;
15071;SDS011;7635;56.696;13.002;2023-04-03T11:00:33;0.57;;;0.57;;
15071;SDS011;7635;56.696;13.002;2023-04-03T11:03:05;1.00;;;0.90;;
15071;SDS011;7635;56.696;13.002;2023-04-03T11:05:39;0.67;;;0.63;;
15071;SDS011;7635;56.696;13.002;2023-04-03T11:08:11;0.90;;;0.90;;
15071;SDS011;7635;56.696;13.002;2023-04-03T11:10:45;0.63;;;0.57;;
15071;SDS011;7635;56.696;13.002;2023-04-03T11:13:15;0.73;;;0.73;;
15071;SDS011;7635;56.696;13.002;2023-04-03T11:15:47;0.87;;;0.87;;
15071;SDS011;7635;56.696;13.002;2023-04-03T11:18:16;0.87;;;0.87;;
15071;SDS011;7635;56.696;13.002;2023-04-03T11:20:47;0.70;;;0.70;;
15071;SDS011;7635;56.696;13.002;2023-04-03T11:23:21;0.50;;;0.50;;
15071;SDS011;7635;56.696;13.002;2023-04-03T11:25:51;0.70;;;0.70;;
15071;SDS011;7635;56.696;13.002;2023-04-03T11:28:20;0.80;;;0.80;;
15071;SDS011;7635;56.696;13.002;2023-04-03T11:30:49;0.70;;;0.70;;
15071;SDS011;7635;56.696;13.002;2023-04-03T11:33:28;0.70;;;0.70;;
15071;SDS011;7635;56.696;13.002;2023-04-03T11:36:03;1.07;;;0.80;;
15071;SDS011;7635;56.696;13.002;2023-04-03T11:38:35;0.80;;;0.80;;
15071;SDS011;7635;56.696;13.002;2023-04-03T11:41:06;0.70;;;0.70;;
15071;SDS011;7635;56.696;13.002;2023-04-03T11:43:37;0.77;;;0.77;;
15071;SDS011;7635;56.696;13.002;2023-04-03T11:46:08;0.80;;;0.80;;
15071;SDS011;7635;56.696;13.002;2023-04-03T11:48:42;0.77;;;0.77;;
15071;SDS011;7635;56.696;13.002;2023-04-03T11:57:14;0.83;;;0.83;;
15071;SDS011;7635;56.696;13.002;2023-04-03T12:03:16;0.80;;;0.80;;
15071;SDS011;7635;56.696;13.002;2023-04-03T12:09:24;1.53;;;0.97;;
15071;SDS011;7635;56.696;13.002;2023-04-03T12:11:53;0.70;;;0.70;;
15071;SDS011;7635;56.696;13.002;2023-04-03T12:14:22;0.70;;;0.70;;
15071;SDS011;7635;56.696;13.002;2023-04-03T12:16:51;0.90;;;0.90;;
15071;SDS011;7635;56.696;13.002;2023-04-03T12:19:33;0.83;;;0.83;;
15071;SDS011;7635;56.696;13.002;2023-04-03T12:22:13;1.00;;;0.90;;
15071;SDS011;7635;56.696;13.002;2023-04-03T12:24:46;2.23;;;1.17;;
15071;SDS011;7635;56.696;13.002;2023-04-03T12:27:27;0.70;;;0.70;;
15071;SDS011;7635;56.696;13.002;2023-04-03T12:30:05;1.80;;;0.70;;
15071;SDS011;7635;56.696;13.002;2023-04-03T12:32:51;0.80;;;0.80;;
15071;SDS011;7635;56.696;13.002;2023-04-03T12:35:47;0.70;;;0.70;;
15071;SDS011;7635;56.696;13.002;2023-04-03T12:38:39;1.43;;;0.90;;
15071;SDS011;7635;56.696;13.002;2023-04-03T12:41:21;0.63;;;0.63;;
15071;SDS011;7635;56.696;13.002;2023-04-03T12:43:59;0.70;;;0.70;;
15071;SDS011;7635;56.696;13.002;2023-04-03T12:46:48;0.90;;;0.90;;
15071;SDS011;7635;56.696;13.002;2023-04-03T12:49:26;0.77;;;0.77;;
15071;SDS011;7635;56.696;13.002;2023-04-03T12:52:01;0.80;;;0.80;;
15071;SDS011;7635;56.696;13.002;2023-04-03T12:54:32;0.80;;;0.80;;
15071;SDS011;7635;56.696;13.002;2023-04-03T12:57:11;0.63;;;0.63;;
15071;SDS011;7635;56.696;13.002;2023-04-03T12:59:42;0.60;;;0.60;;
15071;SDS011;7635;56.696;13.002;2023-04-03T13:02:17;0.97;;;0.70;;
15071;SDS011;7635;56.696;13.002;2023-04-03T13:04:49;0.60;;;0.60;;
15071;SDS011;7635;56.696;13.002;2023-04-03T13:07:22;0.73;;;0.60;;
15071;SDS011;7635;56.696;13.002;2023-04-03T13:09:57;0.97;;;0.97;;
15071;SDS011;7635;56.696;13.002;2023-04-03T13:12:25;1.23;;;1.10;;
15071;SDS011;7635;56.696;13.002;2023-04-03T13:14:53;0.80;;;0.80;;
15071;SDS011;7635;56.696;13.002;2023-04-03T13:17:23;0.67;;;0.67;;
15071;SDS011;7635;56.696;13.002;2023-04-03T13:19:50;0.80;;;0.80;;
15071;SDS011;7635;56.696;13.002;2023-04-03T13:22:24;2.13;;;0.90;;
15071;SDS011;7635;56.696;13.002;2023-04-03T13:24:55;0.90;;;0.90;;
15071;SDS011;7635;56.696;13.002;2023-04-03T13:27:25;0.87;;;0.77;;
15071;SDS011;7635;56.696;13.002;2023-04-03T13:29:53;1.53;;;0.93;;
15071;SDS011;7635;56.696;13.002;2023-04-03T13:32:25;0.83;;;0.83;;
15071;SDS011;7635;56.696;13.002;2023-04-03T13:34:54;1.60;;;0.97;;
15071;SDS011;7635;56.696;13.002;2023-04-03T13:37:24;0.63;;;0.63;;
15071;SDS011;7635;56.696;13.002;2023-04-03T13:39:59;0.90;;;0.90;;
15071;SDS011;7635;56.696;13.002;2023-04-03T13:42:30;0.87;;;0.87;;
15071;SDS011;7635;56.696;13.002;2023-04-03T13:47:55;0.80;;;0.80;;
15071;SDS011;7635;56.696;13.002;2023-04-03T13:50:41;1.00;;;0.90;;
15071;SDS011;7635;56.696;13.002;2023-04-03T13:53:19;0.90;;;0.90;;
15071;SDS011;7635;56.696;13.002;2023-04-03T13:55:54;0.97;;;0.97;;
15071;SDS011;7635;56.696;13.002;2023-04-03T13:58:23;1.00;;;0.90;;
15071;SDS011;7635;56.696;13.002;2023-04-03T14:00:52;1.10;;;1.00;;
15071;SDS011;7635;56.696;13.002;2023-04-03T14:03:21;0.70;;;0.70;;
15071;SDS011;7635;56.696;13.002;2023-04-03T14:05:49;0.90;;;0.90;;
15071;SDS011;7635;56.696;13.002;2023-04-03T14:08:17;0.70;;;0.70;;
15071;SDS011;7635;56.696;13.002;2023-04-03T14:10:46;0.50;;;0.50;;
15071;SDS011;7635;56.696;13.002;2023-04-03T14:13:14;0.87;;;0.87;;
15071;SDS011;7635;56.696;13.002;2023-04-03T14:15:43;0.73;;;0.73;;
15071;SDS011;7635;56.696;13.002;2023-04-03T14:18:12;0.93;;;0.93;;
15071;SDS011;7635;56.696;13.002;2023-04-03T14:20:40;0.53;;;0.53;;
15071;SDS011;7635;56.696;13.002;2023-04-03T14:23:07;1.30;;;0.97;;
15071;SDS011;7635;56.696;13.002;2023-04-03T14:25:35;1.30;;;0.87;;
15071;SDS011;7635;56.696;13.002;2023-04-03T14:28:06;0.70;;;0.70;;
15071;SDS011;7635;56.696;13.002;2023-04-03T14:30:40;0.70;;;0.70;;
15071;SDS011;7635;56.696;13.002;2023-04-03T14:33:09;1.10;;;1.00;;
15071;SDS011;7635;56.696;13.002;2023-04-03T14:35:38;1.20;;;1.10;;
15071;SDS011;7635;56.696;13.002;2023-04-03T14:38:05;1.57;;;0.90;;
15071;SDS011;7635;56.696;13.002;2023-04-03T14:40:48;0.43;;;0.43;;
15071;SDS011;7635;56.696;13.002;2023-04-03T14:43:16;0.80;;;0.80;;
15071;SDS011;7635;56.696;13.002;2023-04-03T14:45:43;0.90;;;0.90;;
15071;SDS011;7635;56.696;13.002;2023-04-03T14:48:10;1.00;;;0.80;;
15071;SDS011;7635;56.696;13.002;2023-04-03T14:50:44;0.93;;;0.80;;
15071;SDS011;7635;56.696;13.002;2023-04-03T14:53:11;0.97;;;0.97;;
15071;SDS011;7635;56.696;13.002;2023-04-03T14:55:39;0.67;;;0.63;;
15071;SDS011;7635;56.696;13.002;2023-04-03T14:58:09;0.67;;;0.67;;
15071;SDS011;7635;56.696;13.002;2023-04-03T15:00:46;0.90;;;0.90;;
15071;SDS011;7635;56.696;13.002;2023-04-03T15:03:13;0.90;;;0.90;;
15071;SDS011;7635;56.696;13.002;2023-04-03T15:05:41;0.77;;;0.77;;
15071;SDS011;7635;56.696;13.002;2023-04-03T15:08:13;1.37;;;1.00;;
15071;SDS011;7635;56.696;13.002;2023-04-03T15:10:45;0.80;;;0.80;;
15071;SDS011;7635;56.696;13.002;2023-04-03T15:13:13;0.63;;;0.63;;
15071;SDS011;7635;56.696;13.002;2023-04-03T15:15:41;2.00;;;0.80;;
15071;SDS011;7635;56.696;13.002;2023-04-03T15:18:10;0.83;;;0.83;;
15071;SDS011;7635;56.696;13.002;2023-04-03T15:20:40;0.67;;;0.67;;
15071;SDS011;7635;56.696;13.002;2023-04-03T15:23:08;0.63;;;0.63;;
15071;SDS011;7635;56.696;13.002;2023-04-03T15:25:36;0.90;;;0.57;;
15071;SDS011;7635;56.696;13.002;2023-04-03T15:28:03;1.17;;;0.93;;
15071;SDS011;7635;56.696;13.002;2023-04-03T15:30:31;0.70;;;0.70;;
15071;SDS011;7635;56.696;13.002;2023-04-03T15:32:58;1.80;;;1.00;;
15071;SDS011;7635;56.696;13.002;2023-04-03T15:35:25;0.90;;;0.90;;
15071;SDS011;7635;56.696;13.002;2023-04-03T15:37:51;0.77;;;0.77;;
15071;SDS011;7635;56.696;13.002;2023-04-03T15:40:18;0.80;;;0.80;;
15071;SDS011;7635;56.696;13.002;2023-04-03T15:42:45;0.80;;;0.80;;